FDX212 EHAM-EGKK
Flight info
| Callsign | FDX212 |
|---|---|
| Flight time | N/A |
| Altitude | 24000 |
| Route | IDRID L980 ABNED Z344 AMRIV Q63 ARREK Y4 TEBRA |
| Aircraft | B722/M-SDFGHRWY/C |
Departure
| Time | 2026-05-06 11:01 |
|---|---|
| Airport | Amsterdam Airport Schiphol (EHAM) |
Arrival
| Time | N/A |
|---|---|
| Airport | London Gatwick Airport (EGKK) |
| Time | Latitude | Longitude | Altitude | Speed | Heading |
|---|---|---|---|---|---|
| 2026-05-06 10:29 | 52.29578 | 4.76413 | 0 ft | 0 kts | 148° |
| 2026-05-06 10:45 | 52.29581 | 4.76410 | 0 ft | 2 kts | 147° |
| 2026-05-06 10:45 | 52.29594 | 4.76396 | 0 ft | 2 kts | 147° |
| 2026-05-06 10:46 | 52.29608 | 4.76381 | 0 ft | 2 kts | 148° |
| 2026-05-06 10:46 | 52.29622 | 4.76367 | 0 ft | 2 kts | 148° |
| 2026-05-06 10:46 | 52.29636 | 4.76353 | 0 ft | 2 kts | 149° |
| 2026-05-06 10:46 | 52.29650 | 4.76340 | 0 ft | 2 kts | 152° |
| 2026-05-06 10:47 | 52.29665 | 4.76332 | 0 ft | 2 kts | 184° |
| 2026-05-06 10:47 | 52.29679 | 4.76345 | 0 ft | 2 kts | 242° |
| 2026-05-06 10:47 | 52.29682 | 4.76355 | 0 ft | 0 kts | 240° |
| 2026-05-06 10:52 | 52.29678 | 4.76343 | 0 ft | 6 kts | 240° |
| 2026-05-06 10:53 | 52.29642 | 4.76247 | 0 ft | 14 kts | 235° |
| 2026-05-06 10:53 | 52.29579 | 4.76088 | 0 ft | 18 kts | 238° |
| 2026-05-06 10:53 | 52.29516 | 4.75896 | 0 ft | 20 kts | 249° |
| 2026-05-06 10:53 | 52.29478 | 4.75741 | 0 ft | 13 kts | 244° |
| 2026-05-06 10:54 | 52.29449 | 4.75656 | 0 ft | 10 kts | 239° |
| 2026-05-06 10:54 | 52.29438 | 4.75593 | -1 ft | 6 kts | 268° |
| 2026-05-06 10:54 | 52.29438 | 4.75580 | -1 ft | 0 kts | 280° |
| 2026-05-06 10:55 | 52.29446 | 4.75555 | -1 ft | 5 kts | 310° |
| 2026-05-06 10:56 | 52.29491 | 4.75497 | -1 ft | 12 kts | 326° |
| 2026-05-06 10:56 | 52.29569 | 4.75414 | 0 ft | 14 kts | 328° |
| 2026-05-06 10:56 | 52.29642 | 4.75341 | 3 ft | 13 kts | 327° |
| 2026-05-06 10:56 | 52.29742 | 4.75276 | 1 ft | 16 kts | 354° |
| 2026-05-06 10:57 | 52.29833 | 4.75210 | 1 ft | 16 kts | 313° |
| 2026-05-06 10:57 | 52.29916 | 4.75056 | 1 ft | 20 kts | 312° |
| 2026-05-06 10:57 | 52.30019 | 4.74863 | 1 ft | 24 kts | 311° |
| 2026-05-06 10:57 | 52.30138 | 4.74648 | 1 ft | 27 kts | 313° |
| 2026-05-06 10:58 | 52.30233 | 4.74467 | 1 ft | 19 kts | 312° |
| 2026-05-06 10:58 | 52.30325 | 4.74298 | 1 ft | 20 kts | 309° |
| 2026-05-06 10:58 | 52.30408 | 4.74141 | 1 ft | 18 kts | 310° |
| 2026-05-06 10:58 | 52.30422 | 4.74043 | 1 ft | 10 kts | 251° |
| 2026-05-06 10:59 | 52.30409 | 4.73909 | -1 ft | 16 kts | 271° |
| 2026-05-06 10:59 | 52.30427 | 4.73766 | -2 ft | 9 kts | 327° |
| 2026-05-06 10:59 | 52.30468 | 4.73759 | -1 ft | 0 kts | 2° |
| 2026-05-06 11:00 | 52.30470 | 4.73759 | -1 ft | 4 kts | 2° |
| 2026-05-06 11:00 | 52.30773 | 4.73787 | 4 ft | 88 kts | 3° |
| 2026-05-06 11:00 | 52.31610 | 4.73857 | 134 ft | 140 kts | 4° |
| 2026-05-06 11:01 | 52.32648 | 4.73960 | 647 ft | 157 kts | 5° |
| 2026-05-06 11:01 | 52.33793 | 4.73944 | 1204 ft | 173 kts | 354° |
| 2026-05-06 11:01 | 52.35028 | 4.73378 | 1743 ft | 196 kts | 343° |
| 2026-05-06 11:01 | 52.36376 | 4.72535 | 2380 ft | 215 kts | 343° |
| 2026-05-06 11:02 | 52.37832 | 4.71631 | 2902 ft | 234 kts | 343° |
| 2026-05-06 11:02 | 52.39359 | 4.70698 | 3731 ft | 233 kts | 343° |
| 2026-05-06 11:02 | 52.40866 | 4.69778 | 4816 ft | 231 kts | 343° |
| 2026-05-06 11:02 | 52.42405 | 4.68871 | 5544 ft | 246 kts | 343° |
| 2026-05-06 11:03 | 52.44075 | 4.67931 | 6058 ft | 259 kts | 343° |
| 2026-05-06 11:03 | 52.45697 | 4.66654 | 6841 ft | 264 kts | 325° |
| 2026-05-06 11:03 | 52.46807 | 4.64191 | 7570 ft | 274 kts | 294° |
| 2026-05-06 11:03 | 52.47005 | 4.61065 | 8320 ft | 282 kts | 263° |
| 2026-05-06 11:04 | 52.46294 | 4.58147 | 9020 ft | 288 kts | 240° |
| 2026-05-06 11:04 | 52.45069 | 4.55451 | 9692 ft | 292 kts | 232° |
| 2026-05-06 11:04 | 52.43782 | 4.52882 | 10316 ft | 292 kts | 233° |
| 2026-05-06 11:04 | 52.42496 | 4.50274 | 10918 ft | 294 kts | 233° |
| 2026-05-06 11:05 | 52.41216 | 4.47708 | 11502 ft | 296 kts | 232° |
| 2026-05-06 11:05 | 52.39896 | 4.45051 | 12050 ft | 298 kts | 233° |
| 2026-05-06 11:05 | 52.38582 | 4.42412 | 12559 ft | 299 kts | 232° |
| 2026-05-06 11:05 | 52.37256 | 4.39754 | 12884 ft | 307 kts | 232° |
| 2026-05-06 11:06 | 52.35879 | 4.36970 | 12890 ft | 321 kts | 232° |
| 2026-05-06 11:06 | 52.34455 | 4.34070 | 12912 ft | 332 kts | 232° |
| 2026-05-06 11:06 | 52.33023 | 4.31159 | 13343 ft | 318 kts | 232° |
| 2026-05-06 11:06 | 52.31685 | 4.28468 | 14614 ft | 302 kts | 232° |
| 2026-05-06 11:07 | 52.30338 | 4.25745 | 15596 ft | 311 kts | 232° |
| 2026-05-06 11:07 | 52.28982 | 4.22986 | 16959 ft | 313 kts | 232° |
| 2026-05-06 11:07 | 52.27666 | 4.20210 | 18061 ft | 321 kts | 235° |
| 2026-05-06 11:07 | 52.26492 | 4.17124 | 19077 ft | 326 kts | 240° |
| 2026-05-06 11:08 | 52.25344 | 4.13915 | 20203 ft | 328 kts | 238° |
| 2026-05-06 11:08 | 52.24090 | 4.10760 | 21301 ft | 332 kts | 236° |
| 2026-05-06 11:08 | 52.22795 | 4.07611 | 22449 ft | 335 kts | 236° |
| 2026-05-06 11:08 | 52.21489 | 4.04319 | 22904 ft | 362 kts | 237° |
| 2026-05-06 11:09 | 52.20067 | 4.00667 | 22919 ft | 400 kts | 237° |
| 2026-05-06 11:09 | 52.18532 | 3.96776 | 22919 ft | 408 kts | 237° |
| 2026-05-06 11:09 | 52.16974 | 3.92887 | 22925 ft | 409 kts | 237° |
| 2026-05-06 11:09 | 52.15432 | 3.89031 | 22923 ft | 408 kts | 237° |
| 2026-05-06 11:10 | 52.13889 | 3.85140 | 22920 ft | 412 kts | 237° |
| 2026-05-06 11:10 | 52.12344 | 3.81263 | 22917 ft | 409 kts | 237° |
| 2026-05-06 11:10 | 52.10798 | 3.77407 | 22917 ft | 408 kts | 237° |
| 2026-05-06 11:10 | 52.09244 | 3.73528 | 22916 ft | 409 kts | 237° |
| 2026-05-06 11:11 | 52.07677 | 3.69614 | 22921 ft | 428 kts | 237° |
| 2026-05-06 11:11 | 52.06007 | 3.65448 | 22933 ft | 436 kts | 237° |
| 2026-05-06 11:11 | 52.04325 | 3.61272 | 22928 ft | 440 kts | 237° |
| 2026-05-06 11:11 | 52.02709 | 3.57269 | 22926 ft | 440 kts | 237° |
| 2026-05-06 11:12 | 52.01036 | 3.53120 | 22926 ft | 439 kts | 237° |
| 2026-05-06 11:12 | 51.99373 | 3.49025 | 22934 ft | 439 kts | 236° |
| 2026-05-06 11:12 | 51.97609 | 3.44962 | 22931 ft | 438 kts | 234° |
| 2026-05-06 11:12 | 51.95748 | 3.41035 | 22929 ft | 439 kts | 233° |
| 2026-05-06 11:13 | 51.93913 | 3.37094 | 22926 ft | 439 kts | 234° |
| 2026-05-06 11:13 | 51.92135 | 3.33058 | 22929 ft | 436 kts | 235° |
| 2026-05-06 11:13 | 51.90360 | 3.29068 | 22941 ft | 435 kts | 234° |
| 2026-05-06 11:13 | 51.88540 | 3.25129 | 22937 ft | 440 kts | 233° |
| 2026-05-06 11:14 | 51.86707 | 3.21153 | 22942 ft | 439 kts | 234° |
| 2026-05-06 11:14 | 51.84944 | 3.17147 | 22935 ft | 436 kts | 237° |
| 2026-05-06 11:14 | 51.83406 | 3.12900 | 22933 ft | 440 kts | 243° |
| 2026-05-06 11:14 | 51.82103 | 3.08445 | 22930 ft | 439 kts | 246° |
| 2026-05-06 11:15 | 51.80844 | 3.03989 | 22929 ft | 438 kts | 244° |
| 2026-05-06 11:15 | 51.79426 | 2.99637 | 22925 ft | 438 kts | 241° |
| 2026-05-06 11:15 | 51.77955 | 2.95317 | 22933 ft | 435 kts | 242° |
| 2026-05-06 11:15 | 51.77033 | 2.92414 | 22931 ft | 434 kts | 244° |
| 2026-05-06 11:16 | 51.75698 | 2.87999 | 22934 ft | 438 kts | 244° |
| 2026-05-06 11:16 | 51.73848 | 2.82176 | 22931 ft | 439 kts | 242° |
| 2026-05-06 11:16 | 51.72417 | 2.77833 | 22932 ft | 438 kts | 243° |
| 2026-05-06 11:16 | 51.71471 | 2.74881 | 22931 ft | 441 kts | 243° |
| 2026-05-06 11:17 | 51.70089 | 2.70470 | 22935 ft | 441 kts | 244° |
| 2026-05-06 11:17 | 51.68939 | 2.65929 | 22938 ft | 437 kts | 254° |
| 2026-05-06 11:17 | 51.68304 | 2.61125 | 22936 ft | 439 kts | 260° |
| 2026-05-06 11:17 | 51.67851 | 2.56106 | 22936 ft | 463 kts | 263° |
| 2026-05-06 11:18 | 51.67491 | 2.50993 | 22946 ft | 457 kts | 263° |
| 2026-05-06 11:18 | 51.67043 | 2.45906 | 22944 ft | 456 kts | 261° |
| 2026-05-06 11:18 | 51.66509 | 2.40846 | 22944 ft | 457 kts | 260° |
| 2026-05-06 11:18 | 51.66034 | 2.35793 | 22945 ft | 455 kts | 262° |
| 2026-05-06 11:19 | 51.65621 | 2.30781 | 22949 ft | 458 kts | 262° |
| 2026-05-06 11:19 | 51.65155 | 2.25671 | 22947 ft | 456 kts | 261° |
| 2026-05-06 11:19 | 51.64651 | 2.20638 | 22946 ft | 459 kts | 261° |
| 2026-05-06 11:19 | 51.64177 | 2.15636 | 22949 ft | 455 kts | 261° |
| 2026-05-06 11:20 | 51.63719 | 2.10525 | 22950 ft | 453 kts | 261° |
| 2026-05-06 11:20 | 51.63250 | 2.05464 | 22916 ft | 458 kts | 261° |
| 2026-05-06 11:20 | 51.62782 | 2.00483 | 22401 ft | 456 kts | 261° |
| 2026-05-06 11:20 | 51.62315 | 1.95420 | 21802 ft | 452 kts | 261° |
| 2026-05-06 11:21 | 51.61865 | 1.90570 | 21238 ft | 417 kts | 261° |
| 2026-05-06 11:21 | 51.61225 | 1.86314 | 20718 ft | 369 kts | 250° |
| 2026-05-06 11:21 | 51.60241 | 1.82717 | 20259 ft | 350 kts | 242° |
| 2026-05-06 11:21 | 51.58936 | 1.79472 | 19808 ft | 349 kts | 233° |
| 2026-05-06 11:22 | 51.57410 | 1.76495 | 19361 ft | 342 kts | 230° |
| 2026-05-06 11:22 | 51.55798 | 1.73647 | 18913 ft | 344 kts | 228° |
| 2026-05-06 11:22 | 51.54157 | 1.70768 | 18457 ft | 347 kts | 230° |
| 2026-05-06 11:22 | 51.52570 | 1.67866 | 17966 ft | 345 kts | 231° |
| 2026-05-06 11:23 | 51.51009 | 1.64985 | 17509 ft | 340 kts | 230° |
| 2026-05-06 11:23 | 51.49452 | 1.62072 | 17048 ft | 339 kts | 234° |
| 2026-05-06 11:23 | 51.48320 | 1.58776 | 16608 ft | 336 kts | 247° |
| 2026-05-06 11:23 | 51.47476 | 1.55311 | 16172 ft | 331 kts | 252° |
| 2026-05-06 11:24 | 51.46757 | 1.51850 | 15746 ft | 327 kts | 252° |
| 2026-05-06 11:24 | 51.45995 | 1.48397 | 15318 ft | 327 kts | 251° |
| 2026-05-06 11:24 | 51.45181 | 1.44998 | 14887 ft | 326 kts | 250° |
| 2026-05-06 11:24 | 51.44381 | 1.41609 | 14454 ft | 320 kts | 251° |
| 2026-05-06 11:25 | 51.43414 | 1.38385 | 14051 ft | 320 kts | 237° |
| 2026-05-06 11:25 | 51.41933 | 1.35706 | 13824 ft | 324 kts | 224° |
| 2026-05-06 11:25 | 51.40204 | 1.33448 | 13652 ft | 325 kts | 218° |
| 2026-05-06 11:25 | 51.38314 | 1.31356 | 13463 ft | 325 kts | 216° |
| 2026-05-06 11:26 | 51.36461 | 1.29273 | 13294 ft | 325 kts | 218° |
| 2026-05-06 11:26 | 51.34672 | 1.27101 | 13112 ft | 323 kts | 220° |
| 2026-05-06 11:26 | 51.32874 | 1.24921 | 12957 ft | 322 kts | 218° |
| 2026-05-06 11:26 | 51.31061 | 1.22803 | 12784 ft | 323 kts | 217° |
| 2026-05-06 11:27 | 51.29248 | 1.20695 | 12613 ft | 322 kts | 218° |
| 2026-05-06 11:27 | 51.27454 | 1.18575 | 12442 ft | 320 kts | 219° |
| 2026-05-06 11:27 | 51.25657 | 1.16444 | 12278 ft | 321 kts | 218° |
| 2026-05-06 11:27 | 51.23863 | 1.14337 | 12105 ft | 321 kts | 218° |
| 2026-05-06 11:28 | 51.22063 | 1.12230 | 11951 ft | 320 kts | 218° |
| 2026-05-06 11:28 | 51.20268 | 1.10125 | 11773 ft | 319 kts | 218° |
| 2026-05-06 11:28 | 51.18580 | 1.08151 | 11615 ft | 289 kts | 218° |
| 2026-05-06 11:28 | 51.16979 | 1.06275 | 11464 ft | 284 kts | 219° |
| 2026-05-06 11:29 | 51.15385 | 1.04404 | 11311 ft | 284 kts | 218° |
| 2026-05-06 11:29 | 51.13798 | 1.02552 | 11174 ft | 284 kts | 219° |
| 2026-05-06 11:29 | 51.12204 | 1.00691 | 11023 ft | 284 kts | 219° |
| 2026-05-06 11:29 | 51.10613 | 0.98834 | 10874 ft | 284 kts | 219° |
| 2026-05-06 11:30 | 51.09025 | 0.96978 | 10732 ft | 284 kts | 219° |
| 2026-05-06 11:30 | 51.07432 | 0.95122 | 10586 ft | 282 kts | 218° |
| 2026-05-06 11:30 | 51.05936 | 0.93101 | 10422 ft | 284 kts | 233° |
| 2026-05-06 11:30 | 51.04888 | 0.90496 | 10293 ft | 279 kts | 245° |
| 2026-05-06 11:31 | 51.04058 | 0.87712 | 10160 ft | 278 kts | 249° |
| 2026-05-06 11:31 | 51.03282 | 0.84893 | 10016 ft | 278 kts | 248° |
| 2026-05-06 11:31 | 51.02455 | 0.82108 | 9879 ft | 278 kts | 246° |
| 2026-05-06 11:31 | 51.01610 | 0.79354 | 9730 ft | 277 kts | 246° |
| 2026-05-06 11:32 | 51.00788 | 0.76614 | 9558 ft | 276 kts | 248° |
| 2026-05-06 11:32 | 50.99961 | 0.73822 | 9433 ft | 275 kts | 248° |
| 2026-05-06 11:32 | 50.99137 | 0.71069 | 9285 ft | 276 kts | 247° |
| 2026-05-06 11:32 | 50.98324 | 0.68369 | 9141 ft | 275 kts | 248° |
| 2026-05-06 11:33 | 50.97490 | 0.65597 | 9003 ft | 274 kts | 247° |
| 2026-05-06 11:33 | 50.96667 | 0.62863 | 8851 ft | 275 kts | 247° |
| 2026-05-06 11:33 | 50.95848 | 0.60142 | 8716 ft | 273 kts | 247° |
| 2026-05-06 11:33 | 50.95027 | 0.57423 | 8568 ft | 273 kts | 248° |
| 2026-05-06 11:34 | 50.94207 | 0.54708 | 8425 ft | 271 kts | 248° |
| 2026-05-06 11:34 | 50.93442 | 0.52136 | 8289 ft | 240 kts | 249° |
| 2026-05-06 11:34 | 50.92781 | 0.49879 | 8146 ft | 212 kts | 249° |
| 2026-05-06 11:34 | 50.92216 | 0.47859 | 8021 ft | 190 kts | 251° |
| 2026-05-06 11:35 | 50.91732 | 0.46031 | 7912 ft | 171 kts | 253° |